Weather at Quambone Royona Airport

Public forecast

Using degrees Celsius for public forecast. Weather courtesy of forecast.io.

Closest aviation weather report (METAR) to Quambone Royona Airport

Closest report is Coonamble Airport, 28.2 nm (52.2 km) ESE. Retrieved 2022/01/27 08:00 UTC (51 minutes ago):

YCNM 270800Z AUTO 02014KT //// // ////// 26/20 Q1011

Closest aviation forecast (TAF) to Quambone Royona Airport

Forecast is more than 12 hours old.

Closest forecast is Dubbo City Regional Airport, 88.6 nm (164.1 km) SSE. Retrieved 2022/01/26 12:37 UTC (20 hours ago):

TAF YSDU 261036Z 2612/2706 07010KT 9999 SCT050 FM261500 08010KT 9999 -SHRA BKN030